Omaha — WDC9423 — position and weather

sailwx.info

Track history (hours):
 
Tides and Currents Weather Stations Pressure Air Temp Water Temp Dewpoint Dewpoint Depression Visibility Wind Speed Wind Dir Waves Ship Positions

Omaha

Owner: Turn Services, LLC, New Orleans, LA. More information available from US FCC via Universal Licensing System and Coast Guard Vessel Documentation Center.

Last reported at 2016-May-26 04:33 UTC. Time now 2016-May-26 04:45 UTC.
Position N 29°55' W 089°55'.

Length 13 m; draft 3.5 m.

Type: Pilot. MMSI: 367102030.

Date/timePositionNaut miles runAvg speedWind from/ knotsBaromVisibWave heightAir tempDewpointWater temp
2016-May-26 04:33N 29°55' W 089°55'0 0.0
2016-May-26 03:27N 29°55' W 089°55'1 1.5
2016-May-26 02:33N 29°54' W 089°54'3 2.5
2016-May-26 01:33N 29°55' W 089°56'2 2.1
2016-May-26 00:34N 29°56' W 089°59'3 2.7
2016-May-25 23:33N 29°55' W 089°56'0 0.0
2016-May-25 22:33N 29°55' W 089°56'1 0.6
2016-May-25 21:33N 29°55' W 089°56'3 3.3
2016-May-25 20:33N 29°57' W 089°60'4 3.7
2016-May-25 19:33N 29°55' W 089°56'2 2.0
2016-May-25 18:33N 29°54' W 089°55'1 1.1
2016-May-25 17:30N 29°55' W 089°55'1 1.1
2016-May-25 16:33N 29°55' W 089°56'0 0.3
2016-May-25 15:32N 29°55' W 089°56'1 1.1
2016-May-25 14:33N 29°55' W 089°55'1 0.7
2016-May-25 13:27N 29°55' W 089°56'0 0.3
2016-May-25 12:33N 29°55' W 089°56'0 0.2
2016-May-25 11:33N 29°55' W 089°56'0 0.0
2016-May-25 10:32N 29°55' W 089°56'1 1.3
2016-May-25 09:33N 29°54' W 089°55'2 1.6
2016-May-25 08:34N 29°55' W 089°56'0 0.4
2016-May-25 07:34N 29°55' W 089°55'1 0.8
2016-May-25 06:33N 29°55' W 089°55'0 0.1
2016-May-25 05:34N 29°55' W 089°55'1 0.8
2016-May-25 04:33N 29°55' W 089°55'1 0.5
2016-May-25 03:34N 29°55' W 089°56'0 0.3
2016-May-25 02:34N 29°55' W 089°56'0 0.2
2016-May-25 01:33N 29°55' W 089°57'1 0.7
2016-May-25 00:34N 29°55' W 089°56'0 0.3
2016-May-24 23:34N 29°55' W 089°56'0 0.1
2016-May-24 22:32N 29°55' W 089°56'1 0.6
2016-May-24 21:33N 29°55' W 089°56'1 0.6
2016-May-24 20:33N 29°55' W 089°56'0 0.4
2016-May-24 19:33N 29°55' W 089°56'0 0.4
2016-May-24 18:33N 29°55' W 089°56'0 0.0
2016-May-24 17:33N 29°55' W 089°56'0 0.0
2016-May-24 16:32N 29°55' W 089°56'0 0.0
2016-May-24 15:33N 29°55' W 089°56'0 0.2
2016-May-24 14:33N 29°55' W 089°56'0 0.0
2016-May-24 13:33N 29°55' W 089°56'0 0.0
2016-May-24 12:33N 29°55' W 089°56'0 0.1
2016-May-24 11:34N 29°55' W 089°56'0 0.1
2016-May-24 10:33N 29°55' W 089°56'0 0.3
2016-May-24 09:33N 29°55' W 089°56'0 0.3
2016-May-24 08:32N 29°55' W 089°56'0 0.3
2016-May-24 07:33N 29°55' W 089°56'0 0.2
2016-May-24 06:33N 29°55' W 089°57'2 2.1
2016-May-24 05:33N 29°56' W 089°59'2 2.4
2016-May-24 04:33N 29°55' W 089°56'0 0.3
2016-May-24 03:33N 29°55' W 089°56'1 0.6
2016-May-24 02:33N 29°55' W 089°57'1 0.7
2016-May-24 01:33N 29°55' W 089°56'0 0.0
2016-May-24 00:33N 29°55' W 089°56'0 0.3
2016-May-23 23:33N 29°55' W 089°56'0 0.3
2016-May-23 22:25N 29°55' W 089°56'0 0.3
2016-May-23 21:33N 29°55' W 089°56'0 0.2
2016-May-23 20:33N 29°55' W 089°56'1 0.7
2016-May-23 19:33N 29°55' W 089°57'1 1.1
2016-May-23 18:32N 29°55' W 089°55'1 0.2
2016-May-23 14:18N 29°55' W 089°56'0 0.2
2016-May-23 13:33N 29°55' W 089°56'0 0.0
2016-May-23 12:31N 29°55' W 089°56'0 0.5
2016-May-23 11:33N 29°55' W 089°56'0 0.0
2016-May-23 10:33N 29°55' W 089°56'0 0.4
2016-May-23 09:34N 29°55' W 089°56'0 0.2
2016-May-23 08:33N 29°55' W 089°56'0 0.0
2016-May-23 07:33N 29°55' W 089°56'0 0.2
2016-May-23 06:33N 29°55' W 089°56'0 0.3
2016-May-23 05:33N 29°55' W 089°56'0 0.0
2016-May-22 09:33N 29°55' W 089°56'0 0.1
2016-May-22 08:33N 29°55' W 089°56'0 0.2
2016-May-22 07:32N 29°55' W 089°56'0 0.1
2016-May-22 06:33N 29°55' W 089°56'0 0.3
2016-May-22 05:33N 29°55' W 089°56'1 0.1
2016-May-21 23:22N 29°55' W 089°56'1 0.1
2016-May-21 13:33N 29°55' W 089°56'0 0.2
2016-May-21 12:33N 29°55' W 089°56'0 0.4
2016-May-21 11:33N 29°55' W 089°56'0 0.1
2016-May-21 10:33N 29°55' W 089°56'1 0.7
2016-May-21 09:32N 29°55' W 089°56'3 3.3
2016-May-21 08:33N 29°57' W 089°60'4 3.6
2016-May-21 07:33N 29°55' W 089°56'2 2.2
2016-May-21 06:33N 29°54' W 089°54'2 1.9
2016-May-21 05:33N 29°55' W 089°56'1 0.8
2016-May-21 04:33N 29°55' W 089°56'1 0.8
2016-May-21 03:33N 29°55' W 089°57'1 1.4
2016-May-21 02:33N 29°55' W 089°56'1 0.8
2016-May-21 01:33N 29°55' W 089°55'5 4.6
2016-May-21 00:33N 29°57' W 089°60'4 3.9
2016-May-20 23:33N 29°55' W 089°56'0 0.2
2016-May-20 22:34N 29°55' W 089°56'0 0.3
2016-May-20 21:33N 29°55' W 089°56'0 0.3
2016-May-20 20:32N 29°55' W 089°56'0 0.1
2016-May-20 19:28N 29°55' W 089°56'0 0.5
2016-May-20 18:33N 29°55' W 089°56'1 0.5
2016-May-20 17:33N 29°55' W 089°56'0 0.0
2016-May-20 15:29N 29°55' W 089°56'2 2.5
2016-May-20 14:33N 29°56' W 089°59'3 2.9
2016-May-20 13:33N 29°55' W 089°56'0 0.0
2016-May-20 12:33N 29°55' W 089°56'0 0.1
2016-May-20 11:33N 29°55' W 089°56'0 0.0
2016-May-20 10:34N 29°55' W 089°56'3 3.1
2016-May-20 09:34N 29°56' W 089°59'0 0.0
2016-May-20 08:33N 29°56' W 089°59'0 0.0
2016-May-20 07:34N 29°56' W 089°59'2 2.0
2016-May-20 06:33N 29°55' W 089°57'2 2.4
2016-May-20 05:34N 29°56' W 089°60'2 1.0
2016-May-20 03:33N 29°55' W 089°57'1 1.3
2016-May-20 02:33N 29°55' W 089°56'3 2.7
2016-May-20 01:33N 29°56' W 089°59'3 3.4
2016-May-20 00:34N 29°55' W 089°55'0 0.1
2016-May-19 23:33N 29°55' W 089°55'1 0.7
2016-May-19 22:33N 29°55' W 089°56'0 0.5
2016-May-19 21:33N 29°55' W 089°56'0 0.1
2016-May-19 20:33N 29°55' W 089°56'3 2.6
2016-May-19 19:33N 29°56' W 089°59'0 0.2
2016-May-19 18:33N 29°56' W 089°59'1 1.1
2016-May-19 17:33N 29°57' W 089°60'4 3.7
2016-May-19 16:33N 29°55' W 089°56'0 0.0
2016-May-19 15:33N 29°55' W 089°56'0 0.0
2016-May-19 14:34N 29°55' W 089°56'0 0.1
2016-May-19 13:33N 29°55' W 089°56'0 0.4
2016-May-19 12:33N 29°55' W 089°55'0 0.2
2016-May-19 11:33N 29°55' W 089°56'0 0.0
2016-May-19 10:33N 29°55' W 089°56'1 0.6
2016-May-19 09:33N 29°55' W 089°56'0 0.4
2016-May-19 08:33N 29°55' W 089°56'1 0.6
2016-May-19 07:33N 29°55' W 089°55'2 1.6
2016-May-19 06:33N 29°54' W 089°54'6 5.9
2016-May-19 05:33N 29°57' W 090°00'0 0.5
2016-May-19 04:33N 29°56' W 089°60'3 2.7
2016-May-19 03:33N 29°55' W 089°57'1 0.8
2016-May-19 02:33N 29°55' W 089°56'0 0.0
2016-May-19 01:33N 29°55' W 089°56'4 3.7
2016-May-19 00:33N 29°57' W 089°60'3 3.3
2016-May-18 23:31N 29°55' W 089°56'1 0.5
2016-May-18 22:33N 29°55' W 089°56'0 0.4
2016-May-18 21:33N 29°55' W 089°56'0 0.1
2016-May-18 20:33N 29°55' W 089°56'3 3.5
2016-May-18 19:33N 29°57' W 089°60'1 0.9
2016-May-18 18:33N 29°56' W 089°59'0 0.1
2016-May-18 17:33N 29°56' W 089°59'1 0.7
2016-May-18 16:33N 29°56' W 089°58'2 1.5
2016-May-18 15:05N 29°55' W 089°56'2 3.8
2016-May-18 14:33N 29°54' W 089°54'0 0.3
2016-May-18 13:33N 29°54' W 089°54'3 3.2
2016-May-18 12:33N 29°55' W 089°57'1 1.0
2016-May-18 11:33N 29°55' W 089°56'0 0.5
2016-May-18 10:33N 29°55' W 089°56'1 0.6
2016-May-18 09:33N 29°55' W 089°56'0 0.2
2016-May-18 08:33N 29°55' W 089°56'0 0.4
2016-May-18 07:33N 29°55' W 089°57'2 1.6
2016-May-18 06:33N 29°56' W 089°59'3 3.0
2016-May-18 05:31N 29°55' W 089°55'0 0.0
2016-May-18 04:30N 29°55' W 089°55'0 0.0
2016-May-18 03:32N 29°55' W 089°55'0 0.0
2016-May-18 02:31N 29°55' W 089°55'4 4.6
2016-May-18 01:33N 29°57' W 089°60'3 3.4
2016-May-18 00:33N 29°55' W 089°56'1 1.3
2016-May-17 23:33N 29°55' W 089°58'2 1.7
2016-May-17 22:33N 29°55' W 089°56'1 0.6
2016-May-17 21:33N 29°55' W 089°56'0 0.4
2016-May-17 20:33N 29°55' W 089°56'0 0.1
2016-May-17 19:33N 29°55' W 089°56'1 1.0
2016-May-17 18:33N 29°55' W 089°55'0 0.3
2016-May-17 17:33N 29°55' W 089°55'0 0.0
2016-May-17 16:30N 29°55' W 089°55'0 0.2
2016-May-17 15:33N 29°55' W 089°55'0 0.2
2016-May-17 14:32N 29°55' W 089°55'0 0.2
2016-May-17 13:33N 29°55' W 089°55'1 0.7
2016-May-17 12:33N 29°55' W 089°56'0 0.0
2016-May-17 11:33N 29°55' W 089°56'0 0.1
2016-May-17 10:34N 29°55' W 089°56'3 3.1
2016-May-17 09:34N 29°56' W 089°59'2 2.3
2016-May-17 08:33N 29°55' W 089°57'0 0.2
2016-May-17 07:34N 29°55' W 089°57'2 2.1
2016-May-17 06:33N 29°56' W 089°59'2 2.4
2016-May-17 05:34N 29°55' W 089°56'0 0.3
2016-May-17 04:33N 29°55' W 089°56'0 0.0
2016-May-17 03:34N 29°55' W 089°56'1 0.5
2016-May-17 02:33N 29°55' W 089°56'1 0.5
2016-May-17 01:33N 29°55' W 089°55'0 0.0
2016-May-17 00:32N 29°55' W 089°55'1 0.5
2016-May-16 23:30N 29°55' W 089°56'0 0.0
2016-May-16 22:34N 29°55' W 089°56'0 0.3
2016-May-16 21:34N 29°55' W 089°56'4 3.6
2016-May-16 20:34N 29°57' W 089°60'2 1.7
2016-May-16 19:34N 29°55' W 089°58'2 2.5
2016-May-16 18:34N 29°55' W 089°56'3 2.8
2016-May-16 17:34N 29°56' W 089°59'3 2.6
2016-May-16 16:33N 29°55' W 089°56'0 0.2
2016-May-16 15:34N 29°55' W 089°56'0 0.3
2016-May-16 14:34N 29°55' W 089°56'3 2.5
2016-May-16 13:34N 29°56' W 089°59'2 2.4
2016-May-16 12:33N 29°55' W 089°56'0 0.4
2016-May-16 11:33N 29°55' W 089°56'0 0.1
2016-May-16 10:33N 29°55' W 089°56'0 0.5
2016-May-16 09:33N 29°55' W 089°56'0 0.4
2016-May-16 08:33N 29°55' W 089°56'0 0.0
2016-May-16 07:33N 29°55' W 089°56'0 0.0
2016-May-16 06:33N 29°55' W 089°56'0 0.0
2016-May-16 05:33N 29°55' W 089°56'0 0.3
2016-May-16 04:33N 29°55' W 089°56'  
Track history (hours):
 
Tides and Currents Weather Stations Pressure Air Temp Water Temp Dewpoint Dewpoint Depression Visibility Wind Speed Wind Dir Waves Ship Positions

Omaha

Owner: Turn Services, LLC, New Orleans, LA. More information available from US FCC via Universal Licensing System and Coast Guard Vessel Documentation Center.

Last reported at 2016-May-26 04:33 UTC. Time now 2016-May-26 04:45 UTC.
Position N 29°55' W 089°55'.

Length 13 m; draft 3.5 m.

Type: Pilot. MMSI: 367102030.

Date/timePositionNaut miles runAvg speedWind from/ knotsBaromVisibWave heightAir tempDewpointWater temp
2016-May-26 04:33N 29°55' W 089°55'0 0.0
2016-May-26 03:27N 29°55' W 089°55'1 1.5
2016-May-26 02:33N 29°54' W 089°54'3 2.5
2016-May-26 01:33N 29°55' W 089°56'2 2.1
2016-May-26 00:34N 29°56' W 089°59'3 2.7
2016-May-25 23:33N 29°55' W 089°56'0 0.0
2016-May-25 22:33N 29°55' W 089°56'1 0.6
2016-May-25 21:33N 29°55' W 089°56'3 3.3
2016-May-25 20:33N 29°57' W 089°60'4 3.7
2016-May-25 19:33N 29°55' W 089°56'2 2.0
2016-May-25 18:33N 29°54' W 089°55'1 1.1
2016-May-25 17:30N 29°55' W 089°55'1 1.1
2016-May-25 16:33N 29°55' W 089°56'0 0.3
2016-May-25 15:32N 29°55' W 089°56'1 1.1
2016-May-25 14:33N 29°55' W 089°55'1 0.7
2016-May-25 13:27N 29°55' W 089°56'0 0.3
2016-May-25 12:33N 29°55' W 089°56'0 0.2
2016-May-25 11:33N 29°55' W 089°56'0 0.0
2016-May-25 10:32N 29°55' W 089°56'1 1.3
2016-May-25 09:33N 29°54' W 089°55'2 1.6
2016-May-25 08:34N 29°55' W 089°56'0 0.4
2016-May-25 07:34N 29°55' W 089°55'1 0.8
2016-May-25 06:33N 29°55' W 089°55'0 0.1
2016-May-25 05:34N 29°55' W 089°55'1 0.8
2016-May-25 04:33N 29°55' W 089°55'1 0.5
2016-May-25 03:34N 29°55' W 089°56'0 0.3
2016-May-25 02:34N 29°55' W 089°56'0 0.2
2016-May-25 01:33N 29°55' W 089°57'1 0.7
2016-May-25 00:34N 29°55' W 089°56'0 0.3
2016-May-24 23:34N 29°55' W 089°56'0 0.1
2016-May-24 22:32N 29°55' W 089°56'1 0.6
2016-May-24 21:33N 29°55' W 089°56'1 0.6
2016-May-24 20:33N 29°55' W 089°56'0 0.4
2016-May-24 19:33N 29°55' W 089°56'0 0.4
2016-May-24 18:33N 29°55' W 089°56'0 0.0
2016-May-24 17:33N 29°55' W 089°56'0 0.0
2016-May-24 16:32N 29°55' W 089°56'0 0.0
2016-May-24 15:33N 29°55' W 089°56'0 0.2
2016-May-24 14:33N 29°55' W 089°56'0 0.0
2016-May-24 13:33N 29°55' W 089°56'0 0.0
2016-May-24 12:33N 29°55' W 089°56'0 0.1
2016-May-24 11:34N 29°55' W 089°56'0 0.1
2016-May-24 10:33N 29°55' W 089°56'0 0.3
2016-May-24 09:33N 29°55' W 089°56'0 0.3
2016-May-24 08:32N 29°55' W 089°56'0 0.3
2016-May-24 07:33N 29°55' W 089°56'0 0.2
2016-May-24 06:33N 29°55' W 089°57'2 2.1
2016-May-24 05:33N 29°56' W 089°59'2 2.4
2016-May-24 04:33N 29°55' W 089°56'0 0.3
2016-May-24 03:33N 29°55' W 089°56'1 0.6
2016-May-24 02:33N 29°55' W 089°57'1 0.7
2016-May-24 01:33N 29°55' W 089°56'0 0.0
2016-May-24 00:33N 29°55' W 089°56'0 0.3
2016-May-23 23:33N 29°55' W 089°56'0 0.3
2016-May-23 22:25N 29°55' W 089°56'0 0.3
2016-May-23 21:33N 29°55' W 089°56'0 0.2
2016-May-23 20:33N 29°55' W 089°56'1 0.7
2016-May-23 19:33N 29°55' W 089°57'1 1.1
2016-May-23 18:32N 29°55' W 089°55'1 0.2
2016-May-23 14:18N 29°55' W 089°56'0 0.2
2016-May-23 13:33N 29°55' W 089°56'0 0.0
2016-May-23 12:31N 29°55' W 089°56'0 0.5
2016-May-23 11:33N 29°55' W 089°56'0 0.0
2016-May-23 10:33N 29°55' W 089°56'0 0.4
2016-May-23 09:34N 29°55' W 089°56'0 0.2
2016-May-23 08:33N 29°55' W 089°56'0 0.0
2016-May-23 07:33N 29°55' W 089°56'0 0.2
2016-May-23 06:33N 29°55' W 089°56'0 0.3
2016-May-23 05:33N 29°55' W 089°56'0 0.0
2016-May-22 09:33N 29°55' W 089°56'0 0.1
2016-May-22 08:33N 29°55' W 089°56'0 0.2
2016-May-22 07:32N 29°55' W 089°56'0 0.1
2016-May-22 06:33N 29°55' W 089°56'0 0.3
2016-May-22 05:33N 29°55' W 089°56'1 0.1
2016-May-21 23:22N 29°55' W 089°56'1 0.1
2016-May-21 13:33N 29°55' W 089°56'0 0.2
2016-May-21 12:33N 29°55' W 089°56'0 0.4
2016-May-21 11:33N 29°55' W 089°56'0 0.1
2016-May-21 10:33N 29°55' W 089°56'1 0.7
2016-May-21 09:32N 29°55' W 089°56'3 3.3
2016-May-21 08:33N 29°57' W 089°60'4 3.6
2016-May-21 07:33N 29°55' W 089°56'2 2.2
2016-May-21 06:33N 29°54' W 089°54'2 1.9
2016-May-21 05:33N 29°55' W 089°56'1 0.8
2016-May-21 04:33N 29°55' W 089°56'1 0.8
2016-May-21 03:33N 29°55' W 089°57'1 1.4
2016-May-21 02:33N 29°55' W 089°56'1 0.8
2016-May-21 01:33N 29°55' W 089°55'5 4.6
2016-May-21 00:33N 29°57' W 089°60'4 3.9
2016-May-20 23:33N 29°55' W 089°56'0 0.2
2016-May-20 22:34N 29°55' W 089°56'0 0.3
2016-May-20 21:33N 29°55' W 089°56'0 0.3
2016-May-20 20:32N 29°55' W 089°56'0 0.1
2016-May-20 19:28N 29°55' W 089°56'0 0.5
2016-May-20 18:33N 29°55' W 089°56'1 0.5
2016-May-20 17:33N 29°55' W 089°56'0 0.0
2016-May-20 15:29N 29°55' W 089°56'2 2.5
2016-May-20 14:33N 29°56' W 089°59'3 2.9
2016-May-20 13:33N 29°55' W 089°56'0 0.0
2016-May-20 12:33N 29°55' W 089°56'0 0.1
2016-May-20 11:33N 29°55' W 089°56'0 0.0
2016-May-20 10:34N 29°55' W 089°56'3 3.1
2016-May-20 09:34N 29°56' W 089°59'0 0.0
2016-May-20 08:33N 29°56' W 089°59'0 0.0
2016-May-20 07:34N 29°56' W 089°59'2 2.0
2016-May-20 06:33N 29°55' W 089°57'2 2.4
2016-May-20 05:34N 29°56' W 089°60'2 1.0
2016-May-20 03:33N 29°55' W 089°57'1 1.3
2016-May-20 02:33N 29°55' W 089°56'3 2.7
2016-May-20 01:33N 29°56' W 089°59'3 3.4
2016-May-20 00:34N 29°55' W 089°55'0 0.1
2016-May-19 23:33N 29°55' W 089°55'1 0.7
2016-May-19 22:33N 29°55' W 089°56'0 0.5
2016-May-19 21:33N 29°55' W 089°56'0 0.1
2016-May-19 20:33N 29°55' W 089°56'3 2.6
2016-May-19 19:33N 29°56' W 089°59'0 0.2
2016-May-19 18:33N 29°56' W 089°59'1 1.1
2016-May-19 17:33N 29°57' W 089°60'4 3.7
2016-May-19 16:33N 29°55' W 089°56'0 0.0
2016-May-19 15:33N 29°55' W 089°56'0 0.0
2016-May-19 14:34N 29°55' W 089°56'0 0.1
2016-May-19 13:33N 29°55' W 089°56'0 0.4
2016-May-19 12:33N 29°55' W 089°55'0 0.2
2016-May-19 11:33N 29°55' W 089°56'0 0.0
2016-May-19 10:33N 29°55' W 089°56'1 0.6
2016-May-19 09:33N 29°55' W 089°56'0 0.4
2016-May-19 08:33N 29°55' W 089°56'1 0.6
2016-May-19 07:33N 29°55' W 089°55'2 1.6
2016-May-19 06:33N 29°54' W 089°54'6 5.9
2016-May-19 05:33N 29°57' W 090°00'0 0.5
2016-May-19 04:33N 29°56' W 089°60'3 2.7
2016-May-19 03:33N 29°55' W 089°57'1 0.8
2016-May-19 02:33N 29°55' W 089°56'0 0.0
2016-May-19 01:33N 29°55' W 089°56'4 3.7
2016-May-19 00:33N 29°57' W 089°60'3 3.3
2016-May-18 23:31N 29°55' W 089°56'1 0.5
2016-May-18 22:33N 29°55' W 089°56'0 0.4
2016-May-18 21:33N 29°55' W 089°56'0 0.1
2016-May-18 20:33N 29°55' W 089°56'3 3.5
2016-May-18 19:33N 29°57' W 089°60'1 0.9
2016-May-18 18:33N 29°56' W 089°59'0 0.1
2016-May-18 17:33N 29°56' W 089°59'1 0.7
2016-May-18 16:33N 29°56' W 089°58'2 1.5
2016-May-18 15:05N 29°55' W 089°56'2 3.8
2016-May-18 14:33N 29°54' W 089°54'0 0.3
2016-May-18 13:33N 29°54' W 089°54'3 3.2
2016-May-18 12:33N 29°55' W 089°57'1 1.0
2016-May-18 11:33N 29°55' W 089°56'0 0.5
2016-May-18 10:33N 29°55' W 089°56'1 0.6
2016-May-18 09:33N 29°55' W 089°56'0 0.2
2016-May-18 08:33N 29°55' W 089°56'0 0.4
2016-May-18 07:33N 29°55' W 089°57'2 1.6
2016-May-18 06:33N 29°56' W 089°59'3 3.0
2016-May-18 05:31N 29°55' W 089°55'0 0.0
2016-May-18 04:30N 29°55' W 089°55'0 0.0
2016-May-18 03:32N 29°55' W 089°55'0 0.0
2016-May-18 02:31N 29°55' W 089°55'4 4.6
2016-May-18 01:33N 29°57' W 089°60'3 3.4
2016-May-18 00:33N 29°55' W 089°56'1 1.3
2016-May-17 23:33N 29°55' W 089°58'2 1.7
2016-May-17 22:33N 29°55' W 089°56'1 0.6
2016-May-17 21:33N 29°55' W 089°56'0 0.4
2016-May-17 20:33N 29°55' W 089°56'0 0.1
2016-May-17 19:33N 29°55' W 089°56'1 1.0
2016-May-17 18:33N 29°55' W 089°55'0 0.3
2016-May-17 17:33N 29°55' W 089°55'0 0.0
2016-May-17 16:30N 29°55' W 089°55'0 0.2
2016-May-17 15:33N 29°55' W 089°55'0 0.2
2016-May-17 14:32N 29°55' W 089°55'0 0.2
2016-May-17 13:33N 29°55' W 089°55'1 0.7
2016-May-17 12:33N 29°55' W 089°56'0 0.0
2016-May-17 11:33N 29°55' W 089°56'0 0.1
2016-May-17 10:34N 29°55' W 089°56'3 3.1
2016-May-17 09:34N 29°56' W 089°59'2 2.3
2016-May-17 08:33N 29°55' W 089°57'0 0.2
2016-May-17 07:34N 29°55' W 089°57'2 2.1
2016-May-17 06:33N 29°56' W 089°59'2 2.4
2016-May-17 05:34N 29°55' W 089°56'0 0.3
2016-May-17 04:33N 29°55' W 089°56'0 0.0
2016-May-17 03:34N 29°55' W 089°56'1 0.5
2016-May-17 02:33N 29°55' W 089°56'1 0.5
2016-May-17 01:33N 29°55' W 089°55'0 0.0
2016-May-17 00:32N 29°55' W 089°55'1 0.5
2016-May-16 23:30N 29°55' W 089°56'0 0.0
2016-May-16 22:34N 29°55' W 089°56'0 0.3
2016-May-16 21:34N 29°55' W 089°56'4 3.6
2016-May-16 20:34N 29°57' W 089°60'2 1.7
2016-May-16 19:34N 29°55' W 089°58'2 2.5
2016-May-16 18:34N 29°55' W 089°56'3 2.8
2016-May-16 17:34N 29°56' W 089°59'3 2.6
2016-May-16 16:33N 29°55' W 089°56'0 0.2
2016-May-16 15:34N 29°55' W 089°56'0 0.3
2016-May-16 14:34N 29°55' W 089°56'3 2.5
2016-May-16 13:34N 29°56' W 089°59'2 2.4
2016-May-16 12:33N 29°55' W 089°56'0 0.4
2016-May-16 11:33N 29°55' W 089°56'0 0.1
2016-May-16 10:33N 29°55' W 089°56'0 0.5
2016-May-16 09:33N 29°55' W 089°56'0 0.4
2016-May-16 08:33N 29°55' W 089°56'0 0.0
2016-May-16 07:33N 29°55' W 089°56'0 0.0
2016-May-16 06:33N 29°55' W 089°56'0 0.0
2016-May-16 05:33N 29°55' W 089°56'0 0.3
2016-May-16 04:33N 29°55' W 089°56'  

Dump ship's entire track history